createdAt,value
2022-11-21T00:01:33.082Z,-2.50
2022-11-21T00:04:01.242Z,-2.50
2022-11-21T00:06:28.200Z,-2.40
2022-11-21T00:08:58.057Z,-2.40
2022-11-21T00:11:24.987Z,-2.40
2022-11-21T00:13:51.887Z,-2.30
2022-11-21T00:16:18.765Z,-2.30
2022-11-21T00:18:45.589Z,-2.30
2022-11-21T00:21:17.750Z,-2.30
2022-11-21T00:23:45.797Z,-2.30
2022-11-21T00:26:14.642Z,-2.20
2022-11-21T00:28:45.305Z,-2.30
2022-11-21T00:31:23.450Z,-2.20
2022-11-21T00:33:53.588Z,-2.10
2022-11-21T00:36:20.602Z,-2.00
2022-11-21T00:38:47.484Z,-2.00
2022-11-21T00:41:14.628Z,-2.00
2022-11-21T00:43:41.532Z,-2.00
2022-11-21T00:46:08.424Z,-2.00
2022-11-21T00:48:35.259Z,-2.00
2022-11-21T00:51:02.099Z,-1.90
2022-11-21T00:53:29.854Z,-2.00
2022-11-21T00:55:57.806Z,-2.00
2022-11-21T00:58:25.013Z,-2.10
2022-11-21T01:00:51.891Z,-2.00
2022-11-21T01:03:18.978Z,-2.00
2022-11-21T01:05:45.793Z,-2.10
2022-11-21T01:08:12.595Z,-2.10
2022-11-21T01:10:39.390Z,-2.20
2022-11-21T01:13:06.264Z,-2.20
2022-11-21T01:15:36.486Z,-2.30
2022-11-21T01:18:03.667Z,-2.20
2022-11-21T01:20:30.480Z,-2.20
2022-11-21T01:22:57.295Z,-2.20
2022-11-21T01:25:24.148Z,-2.20
2022-11-21T01:27:51.030Z,-2.20
2022-11-21T01:30:17.869Z,-2.10
2022-11-21T01:32:49.180Z,-2.20
2022-11-21T01:35:16.668Z,-2.10
2022-11-21T01:37:43.506Z,-2.20
2022-11-21T01:40:11.194Z,-2.10
2022-11-21T01:43:05.122Z,-2.10
2022-11-21T01:45:56.509Z,-2.10
2022-11-21T01:48:47.868Z,-2.10
2022-11-21T01:51:24.338Z,-2.10
2022-11-21T01:54:31.271Z,-2.10
2022-11-21T01:57:23.504Z,-2.10
2022-11-21T02:00:05.516Z,-2.20
2022-11-21T02:02:40.183Z,-2.20
2022-11-21T02:05:11.815Z,-2.20
2022-11-21T02:07:43.123Z,-2.30
2022-11-21T02:10:10.844Z,-2.40
2022-11-21T02:12:50.511Z,-2.50
2022-11-21T02:15:18.573Z,-2.50
2022-11-21T02:17:45.485Z,-2.50
2022-11-21T02:20:17.881Z,-2.50
2022-11-21T02:22:56.247Z,-2.60
2022-11-21T02:25:34.769Z,-2.60
2022-11-21T02:28:07.144Z,-2.60
2022-11-21T02:30:38.070Z,-2.60
2022-11-21T02:33:05.579Z,-2.60
2022-11-21T02:35:33.956Z,-2.60
2022-11-21T02:38:39.716Z,-2.60
2022-11-21T02:41:18.275Z,-2.70
2022-11-21T02:43:51.192Z,-2.70
2022-11-21T02:46:18.061Z,-2.90
2022-11-21T02:48:45.071Z,-3.00
2022-11-21T02:51:11.901Z,-2.90
2022-11-21T02:53:38.739Z,-3.00
2022-11-21T02:56:05.613Z,-2.90
2022-11-21T02:58:32.661Z,-3.10
2022-11-21T03:00:59.661Z,-3.10
2022-11-21T03:03:26.517Z,-3.10
2022-11-21T03:05:53.454Z,-3.00
2022-11-21T03:08:20.232Z,-3.10
2022-11-21T03:10:47.167Z,-3.10
2022-11-21T03:13:14.395Z,-3.10
2022-11-21T03:15:41.192Z,-3.10
2022-11-21T03:18:08.090Z,-3.00
2022-11-21T03:20:35.276Z,-3.10
2022-11-21T03:23:02.609Z,-3.10
2022-11-21T03:25:29.888Z,-3.10
2022-11-21T03:27:57.255Z,-3.20
2022-11-21T03:30:26.342Z,-3.30
2022-11-21T03:32:56.669Z,-3.50
2022-11-21T03:35:24.131Z,-3.60
2022-11-21T03:37:51.039Z,-3.50
2022-11-21T03:40:17.966Z,-3.40
2022-11-21T03:42:44.905Z,-3.50
2022-11-21T03:45:11.806Z,-3.50
2022-11-21T03:47:38.617Z,-3.50
2022-11-21T03:50:05.754Z,-3.40
2022-11-21T03:52:35.734Z,-3.40
2022-11-21T03:55:02.663Z,-3.40
2022-11-21T03:57:29.559Z,-3.40
2022-11-21T03:59:56.559Z,-3.60
2022-11-21T04:02:23.487Z,-3.60
2022-11-21T04:04:50.401Z,-3.50
2022-11-21T04:07:17.405Z,-3.50
2022-11-21T04:09:44.248Z,-3.50
2022-11-21T04:12:11.084Z,-3.40
2022-11-21T04:14:38.078Z,-3.50
2022-11-21T04:17:05.059Z,-3.50
2022-11-21T04:19:31.879Z,-3.50
2022-11-21T04:21:58.772Z,-3.60
2022-11-21T04:24:25.772Z,-3.60
2022-11-21T04:26:55.693Z,-3.60
2022-11-21T04:29:22.952Z,-3.50
2022-11-21T04:31:49.903Z,-3.40
2022-11-21T04:34:16.747Z,-3.30
2022-11-21T04:36:43.869Z,-3.40
2022-11-21T04:39:10.847Z,-3.40
2022-11-21T04:41:37.754Z,-3.40
2022-11-21T04:44:04.789Z,-3.40
2022-11-21T04:46:31.662Z,-3.40
2022-11-21T04:48:58.621Z,-3.40
2022-11-21T04:51:25.485Z,-3.40
2022-11-21T04:53:52.308Z,-3.40
2022-11-21T04:56:19.308Z,-3.40
2022-11-21T04:58:46.159Z,-3.40
2022-11-21T05:01:13.185Z,-3.50
2022-11-21T05:03:40.247Z,-3.60
2022-11-21T05:06:07.224Z,-3.60
2022-11-21T05:08:34.235Z,-3.70
2022-11-21T05:11:19.488Z,-3.70
2022-11-21T05:13:46.323Z,-3.70
2022-11-21T05:16:13.196Z,-3.70
2022-11-21T05:18:40.071Z,-3.70
2022-11-21T05:21:07.010Z,-3.70
2022-11-21T05:23:33.852Z,-3.80
2022-11-21T05:26:00.690Z,-3.80
2022-11-21T05:28:27.558Z,-3.80
2022-11-21T05:30:54.477Z,-3.80
2022-11-21T05:33:21.621Z,-3.80
2022-11-21T05:35:48.525Z,-3.90
2022-11-21T05:38:15.576Z,-3.90
2022-11-21T05:40:42.420Z,-3.90
2022-11-21T05:43:30.384Z,-4.00
2022-11-21T05:45:57.523Z,-3.90
2022-11-21T05:48:24.390Z,-4.00
2022-11-21T05:50:51.212Z,-4.00
2022-11-21T05:53:18.615Z,-3.90
2022-11-21T05:55:45.825Z,-4.00
2022-11-21T05:58:13.117Z,-3.90
2022-11-21T06:00:39.992Z,-3.90
2022-11-21T06:03:26.928Z,-3.90
2022-11-21T06:06:12.017Z,-3.90
2022-11-21T06:08:50.104Z,-3.90
2022-11-21T06:11:17.340Z,-4.00
2022-11-21T06:13:44.641Z,-4.00
2022-11-21T06:16:17.487Z,-4.00
2022-11-21T06:18:47.195Z,-4.00
2022-11-21T06:21:20.469Z,-3.90
2022-11-21T06:23:50.734Z,-4.00
2022-11-21T06:26:25.846Z,-4.00
2022-11-21T06:28:54.320Z,-3.90
2022-11-21T06:31:26.223Z,-3.80
2022-11-21T06:33:58.363Z,-3.80
2022-11-21T06:36:26.268Z,-3.80
2022-11-21T06:38:54.701Z,-3.70
2022-11-21T06:41:24.151Z,-3.70
2022-11-21T06:43:51.101Z,-3.70
2022-11-21T06:46:18.759Z,-3.60
2022-11-21T06:48:45.792Z,-3.40
2022-11-21T06:51:21.986Z,-3.50
2022-11-21T06:53:56.041Z,-3.40
2022-11-21T06:56:24.720Z,-3.40
2022-11-21T06:58:51.798Z,-3.40
2022-11-21T07:01:19.205Z,-3.30
2022-11-21T07:03:46.191Z,-3.30
2022-11-21T07:06:13.047Z,-3.30
2022-11-21T07:08:43.128Z,-3.20
2022-11-21T07:11:28.280Z,-3.20
2022-11-21T07:13:55.283Z,-3.10
2022-11-21T07:16:22.168Z,-3.00
2022-11-21T07:18:49.093Z,-3.00
2022-11-21T07:21:16.032Z,-2.90
2022-11-21T07:23:42.898Z,-2.60
2022-11-21T07:26:10.699Z,-2.20
2022-11-21T07:28:37.753Z,-1.90
2022-11-21T07:31:10.112Z,-1.60
2022-11-21T07:33:38.850Z,-1.30
2022-11-21T07:36:06.070Z,-1.10
2022-11-21T07:38:33.171Z,-0.90
2022-11-21T07:41:00.091Z,-1.00
2022-11-21T07:43:27.002Z,-1.00
2022-11-21T07:45:53.841Z,-0.70
2022-11-21T07:48:20.726Z,-0.70
2022-11-21T07:50:47.762Z,-0.50
2022-11-21T07:53:14.848Z,-0.30
2022-11-21T07:55:41.784Z,-0.20
2022-11-21T07:58:15.690Z,-0.20
2022-11-21T08:00:43.085Z,-0.10
2022-11-21T08:03:12.437Z,0.00
2022-11-21T08:05:44.587Z,0.10
2022-11-21T08:08:13.447Z,0.10
2022-11-21T08:10:45.417Z,0.20
2022-11-21T08:13:13.576Z,0.10
2022-11-21T08:15:41.661Z,0.20
2022-11-21T08:18:19.746Z,0.30
2022-11-21T08:20:47.046Z,0.50
2022-11-21T08:23:14.025Z,0.60
2022-11-21T08:25:43.163Z,0.70
2022-11-21T08:28:11.967Z,0.90
2022-11-21T08:30:40.211Z,1.10
2022-11-21T08:33:07.404Z,1.00
2022-11-21T08:35:37.881Z,0.80
2022-11-21T08:38:05.766Z,0.60
2022-11-21T08:40:33.639Z,0.50
2022-11-21T08:43:01.113Z,0.50
2022-11-21T08:45:28.112Z,0.50
2022-11-21T08:47:55.497Z,0.30
2022-11-21T08:50:23.335Z,0.30
2022-11-21T08:52:50.250Z,0.30
2022-11-21T08:55:17.218Z,0.40
2022-11-21T08:57:44.179Z,0.50
2022-11-21T09:00:15.906Z,0.40
2022-11-21T09:02:42.766Z,0.40
2022-11-21T09:05:09.949Z,0.40
2022-11-21T09:07:36.963Z,0.40
2022-11-21T09:10:04.619Z,0.50
2022-11-21T09:12:31.639Z,0.60
2022-11-21T09:15:17.270Z,0.50
2022-11-21T09:18:02.579Z,0.40
2022-11-21T09:20:29.889Z,0.30
2022-11-21T09:22:56.697Z,0.30
2022-11-21T09:25:23.679Z,0.40
2022-11-21T09:27:50.565Z,0.50
2022-11-21T09:30:22.089Z,0.40
2022-11-21T09:32:49.060Z,0.50
2022-11-21T09:35:28.588Z,0.70
2022-11-21T09:37:55.599Z,0.70
2022-11-21T09:40:23.094Z,0.80
2022-11-21T09:43:19.993Z,0.80
2022-11-21T09:45:50.725Z,0.90
2022-11-21T09:49:00.338Z,0.80
2022-11-21T09:51:31.065Z,0.90
2022-11-21T09:54:23.221Z,0.90
2022-11-21T09:56:52.677Z,0.90
2022-11-21T09:59:42.478Z,0.90
2022-11-21T10:02:16.950Z,1.00
2022-11-21T10:04:47.190Z,1.00
2022-11-21T10:07:25.347Z,1.10
2022-11-21T10:10:39.624Z,1.10
2022-11-21T10:13:27.593Z,1.10
2022-11-21T10:16:21.402Z,1.00
2022-11-21T10:19:06.967Z,1.00
2022-11-21T10:21:45.463Z,1.00
2022-11-21T10:24:32.065Z,1.00
2022-11-21T10:27:18.800Z,1.10
2022-11-21T10:30:01.147Z,1.10
2022-11-21T10:32:35.660Z,1.00
2022-11-21T10:35:16.134Z,1.10
2022-11-21T10:37:49.916Z,1.00
2022-11-21T10:40:41.063Z,1.00
2022-11-21T10:43:44.892Z,1.10
2022-11-21T10:46:11.880Z,1.10
2022-11-21T10:48:38.762Z,1.10
2022-11-21T10:51:30.435Z,1.00
2022-11-21T10:54:27.827Z,1.10
2022-11-21T10:56:59.514Z,1.20
2022-11-21T10:59:31.111Z,1.20
2022-11-21T11:02:24.148Z,1.40
2022-11-21T11:05:18.891Z,1.40
2022-11-21T11:08:06.759Z,1.40
2022-11-21T11:10:38.162Z,1.50
2022-11-21T11:13:45.844Z,1.50
2022-11-21T11:16:16.249Z,1.60
2022-11-21T11:19:08.716Z,1.80
2022-11-21T11:21:46.094Z,1.80
2022-11-21T11:24:13.122Z,1.80
2022-11-21T11:26:49.879Z,2.10
2022-11-21T11:29:44.377Z,2.50
2022-11-21T11:32:21.523Z,3.10
2022-11-21T11:35:17.742Z,3.60
2022-11-21T11:38:00.403Z,3.70
2022-11-21T11:40:32.765Z,3.70
2022-11-21T11:43:25.390Z,3.80
2022-11-21T11:46:36.249Z,4.00
2022-11-21T11:49:24.602Z,4.00
2022-11-21T11:51:59.437Z,3.80
2022-11-21T11:54:50.602Z,3.60
2022-11-21T11:57:18.985Z,3.60
2022-11-21T11:59:53.273Z,3.40
2022-11-21T12:02:20.194Z,3.30
2022-11-21T12:04:52.232Z,3.20
2022-11-21T12:08:33.151Z,3.30
2022-11-21T12:11:09.742Z,3.20
2022-11-21T12:13:37.335Z,3.60
2022-11-21T12:16:13.777Z,3.50
2022-11-21T12:18:55.891Z,3.60
2022-11-21T12:21:23.573Z,3.50
2022-11-21T12:23:51.493Z,3.50
2022-11-21T12:26:33.525Z,3.40
2022-11-21T12:29:00.323Z,3.20
2022-11-21T12:31:47.197Z,3.10
2022-11-21T12:34:37.410Z,3.00
2022-11-21T12:37:38.472Z,3.00
2022-11-21T12:40:17.194Z,3.00
2022-11-21T12:42:58.859Z,3.00
2022-11-21T12:45:39.110Z,3.10
2022-11-21T12:48:43.845Z,3.10
2022-11-21T12:51:50.727Z,3.00
2022-11-21T12:54:42.604Z,2.80
2022-11-21T12:57:17.658Z,2.50
2022-11-21T13:00:14.921Z,2.30
2022-11-21T13:03:03.564Z,2.20
2022-11-21T13:05:36.036Z,2.20
2022-11-21T13:08:09.397Z,2.10
2022-11-21T13:10:38.201Z,2.10
2022-11-21T13:13:23.800Z,2.10
2022-11-21T13:16:36.651Z,2.20
2022-11-21T13:19:23.494Z,2.20
2022-11-21T13:21:53.763Z,2.10
2022-11-21T13:24:45.393Z,2.20
2022-11-21T13:27:38.796Z,2.20
2022-11-21T13:30:11.760Z,2.20
2022-11-21T13:32:46.401Z,2.40
2022-11-21T13:35:19.513Z,2.30
2022-11-21T13:37:49.765Z,2.20
2022-11-21T13:40:29.998Z,2.30
2022-11-21T13:43:35.664Z,2.20
2022-11-21T13:45:58.904Z,2.30
2022-11-21T13:48:28.752Z,2.30
2022-11-21T13:51:23.212Z,2.40
2022-11-21T13:54:28.347Z,2.30
2022-11-21T13:57:09.437Z,2.30
2022-11-21T14:00:03.460Z,2.30
2022-11-21T14:02:44.455Z,2.20
2022-11-21T14:05:18.717Z,2.10
2022-11-21T14:07:47.937Z,2.10
2022-11-21T14:10:34.007Z,2.00
2022-11-21T14:13:03.419Z,2.00
2022-11-21T14:15:45.623Z,2.00
2022-11-21T14:18:32.346Z,1.90
2022-11-21T14:21:01.260Z,2.00
2022-11-21T14:23:31.303Z,1.90
2022-11-21T14:26:19.601Z,1.80
2022-11-21T14:28:46.911Z,1.90
2022-11-21T14:31:14.650Z,1.90
2022-11-21T14:33:47.300Z,1.90
2022-11-21T14:36:24.511Z,1.70
2022-11-21T14:39:35.214Z,1.70
2022-11-21T14:42:16.411Z,1.70
2022-11-21T14:44:45.946Z,1.70
2022-11-21T14:47:25.786Z,1.70
2022-11-21T14:50:07.135Z,1.70
2022-11-21T14:52:34.869Z,1.60
2022-11-21T14:57:57.529Z,1.60
2022-11-21T15:03:22.982Z,1.70
2022-11-21T15:06:07.294Z,1.50
2022-11-21T15:11:28.395Z,1.50
2022-11-21T15:14:15.508Z,1.40
2022-11-21T15:16:48.105Z,1.30
2022-11-21T15:19:33.468Z,1.30
2022-11-21T15:22:04.273Z,1.30
2022-11-21T15:24:33.650Z,1.40
2022-11-21T15:27:00.985Z,1.30
2022-11-21T15:29:30.321Z,1.40
2022-11-21T15:32:08.670Z,1.40
2022-11-21T15:34:39.396Z,1.20
2022-11-21T15:37:20.736Z,1.30
2022-11-21T15:39:50.577Z,1.10
2022-11-21T15:42:32.839Z,1.10
2022-11-21T15:45:02.131Z,1.10
2022-11-21T15:47:29.088Z,1.20
2022-11-21T15:49:56.128Z,1.00
2022-11-21T15:52:23.772Z,0.90
2022-11-21T15:54:50.975Z,0.90
2022-11-21T15:59:49.652Z,0.90
2022-11-21T16:02:16.793Z,0.90
2022-11-21T16:04:44.802Z,0.80
2022-11-21T16:07:11.674Z,0.90
2022-11-21T16:09:40.883Z,0.90
2022-11-21T16:12:09.309Z,0.80
2022-11-21T16:14:36.371Z,0.80
2022-11-21T16:17:03.371Z,0.80
2022-11-21T16:19:30.567Z,0.80
2022-11-21T16:21:57.777Z,0.80
2022-11-21T16:24:24.643Z,0.80
2022-11-21T16:26:55.452Z,0.70
2022-11-21T16:29:22.409Z,0.70
2022-11-21T16:31:50.809Z,0.80
2022-11-21T16:34:20.759Z,0.90
2022-11-21T16:36:47.556Z,0.90
2022-11-21T16:39:18.173Z,1.00
2022-11-21T16:41:47.354Z,1.10
2022-11-21T16:44:16.266Z,1.10
2022-11-21T16:46:47.321Z,1.00
2022-11-21T16:49:14.341Z,1.00
2022-11-21T16:58:16.485Z,0.90
2022-11-21T17:00:46.392Z,0.90
2022-11-21T17:03:17.094Z,0.80
2022-11-21T17:05:44.008Z,0.80
2022-11-21T17:08:10.958Z,0.90
2022-11-21T17:10:51.215Z,0.80
2022-11-21T17:24:59.851Z,0.90
2022-11-21T17:27:27.140Z,0.80
2022-11-21T17:29:54.496Z,0.80
2022-11-21T17:32:31.996Z,0.80
2022-11-21T17:35:21.723Z,0.90
2022-11-21T17:38:06.177Z,0.80
2022-11-21T17:40:37.649Z,0.80
2022-11-21T17:43:05.168Z,0.90
2022-11-21T17:46:09.581Z,0.80
2022-11-21T17:49:09.226Z,0.90
2022-11-21T17:51:56.643Z,0.90
2022-11-21T17:54:37.700Z,1.00
2022-11-21T17:57:04.911Z,1.00
2022-11-21T17:59:34.850Z,0.90
2022-11-21T18:02:02.189Z,1.00
2022-11-21T18:04:42.328Z,1.00
2022-11-21T18:07:13.040Z,1.00
2022-11-21T18:09:40.283Z,1.10
2022-11-21T18:12:10.678Z,1.10
2022-11-21T18:14:41.036Z,1.10
2022-11-21T18:17:08.252Z,1.30
2022-11-21T18:19:35.549Z,1.10
2022-11-21T18:22:22.543Z,1.20
2022-11-21T18:25:17.331Z,1.20
2022-11-21T18:27:54.501Z,1.20
2022-11-21T18:30:21.936Z,1.20
2022-11-21T18:32:50.264Z,1.20
2022-11-21T18:35:20.646Z,1.20
2022-11-21T18:37:53.323Z,1.20
2022-11-21T18:40:26.182Z,1.20
2022-11-21T18:42:55.946Z,1.20
2022-11-21T18:45:26.422Z,1.40
2022-11-21T18:47:57.490Z,1.30
2022-11-21T18:50:24.845Z,1.30
2022-11-21T18:52:53.411Z,1.30
2022-11-21T18:55:22.621Z,1.40
2022-11-21T18:57:50.793Z,1.40
2022-11-21T19:00:18.120Z,1.40
2022-11-21T19:02:48.672Z,1.40
2022-11-21T19:05:20.312Z,1.40
2022-11-21T19:07:56.404Z,1.40
2022-11-21T19:10:47.057Z,1.50
2022-11-21T19:13:14.561Z,1.50
2022-11-21T19:15:43.908Z,1.40
2022-11-21T19:18:14.246Z,1.40
2022-11-21T19:20:45.075Z,1.40
2022-11-21T19:23:34.031Z,1.30
2022-11-21T19:26:02.952Z,1.30
2022-11-21T19:28:31.095Z,1.50
2022-11-21T19:31:27.145Z,1.60
2022-11-21T19:34:29.866Z,1.40
2022-11-21T19:37:53.719Z,1.40
2022-11-21T19:41:24.936Z,1.50
2022-11-21T19:44:03.213Z,1.40
2022-11-21T19:46:40.983Z,1.50
2022-11-21T19:49:28.334Z,1.50
2022-11-21T19:54:47.893Z,1.40
2022-11-21T19:57:47.339Z,1.40
2022-11-21T20:00:22.955Z,1.40
2022-11-21T20:03:01.384Z,1.50
2022-11-21T20:10:30.728Z,1.50
2022-11-21T20:13:04.610Z,1.60
2022-11-21T20:15:34.555Z,1.60
2022-11-21T20:18:16.440Z,1.60
2022-11-21T20:20:52.314Z,1.60
2022-11-21T20:23:21.794Z,1.50
2022-11-21T20:25:52.237Z,1.50
2022-11-21T20:28:19.505Z,1.40
2022-11-21T20:30:51.894Z,1.40
2022-11-21T20:33:18.862Z,1.30
2022-11-21T20:35:45.747Z,1.50
2022-11-21T20:41:09.246Z,1.50
2022-11-21T20:44:03.126Z,1.40
2022-11-21T20:46:27.486Z,1.40
2022-11-21T20:49:32.749Z,1.50
2022-11-21T20:54:46.990Z,1.50
2022-11-21T20:57:15.553Z,1.50
2022-11-21T20:59:43.083Z,1.50
2022-11-21T21:02:14.166Z,1.60
2022-11-21T21:04:41.827Z,1.50
2022-11-21T21:07:08.865Z,1.50
2022-11-21T21:09:35.832Z,1.50
2022-11-21T21:12:02.767Z,1.40
2022-11-21T21:14:29.818Z,1.50
2022-11-21T21:16:56.990Z,1.50
2022-11-21T21:19:23.994Z,1.40
2022-11-21T21:21:51.073Z,1.50
2022-11-21T21:24:18.524Z,1.50
2022-11-21T21:26:47.993Z,1.50
2022-11-21T21:29:18.752Z,1.50
2022-11-21T21:31:50.979Z,1.40
2022-11-21T21:34:19.929Z,1.40
2022-11-21T21:36:47.224Z,1.40
2022-11-21T21:39:14.301Z,1.40
2022-11-21T21:41:44.609Z,1.50
2022-11-21T21:44:12.424Z,1.50
2022-11-21T21:46:39.675Z,1.50
2022-11-21T21:49:06.624Z,1.50
2022-11-21T21:51:33.667Z,1.40
2022-11-21T21:54:00.693Z,1.40
2022-11-21T21:56:28.944Z,1.40
2022-11-21T21:58:57.903Z,1.40
2022-11-21T22:01:30.509Z,1.40
2022-11-21T22:03:59.469Z,1.50
2022-11-21T22:06:27.210Z,1.50
2022-11-21T22:08:55.185Z,1.50
2022-11-21T22:11:27.306Z,1.50
2022-11-21T22:13:59.916Z,1.50
2022-11-21T22:16:27.257Z,1.50
2022-11-21T22:18:54.247Z,1.50
2022-11-21T22:21:34.661Z,1.50
2022-11-21T22:26:50.519Z,1.60
2022-11-21T22:29:17.475Z,1.60
2022-11-21T22:31:44.370Z,1.70
2022-11-21T22:34:15.689Z,1.70
2022-11-21T22:36:43.412Z,1.70
2022-11-21T22:39:10.272Z,1.60
2022-11-21T22:41:37.118Z,1.70
2022-11-21T22:44:04.059Z,1.70
2022-11-21T22:46:31.329Z,1.70
2022-11-21T22:48:59.029Z,1.80
2022-11-21T22:51:29.567Z,1.80
2022-11-21T22:53:57.084Z,1.70
2022-11-21T22:56:25.027Z,1.70
2022-11-21T22:58:52.115Z,1.80
2022-11-21T23:01:24.427Z,1.80
2022-11-21T23:03:52.547Z,1.80
2022-11-21T23:06:23.693Z,1.80
2022-11-21T23:08:52.353Z,1.80
2022-11-21T23:11:25.840Z,1.70
2022-11-21T23:13:53.722Z,1.70
2022-11-21T23:16:21.270Z,1.70
2022-11-21T23:18:48.866Z,1.60
2022-11-21T23:21:15.777Z,1.70
2022-11-21T23:23:44.030Z,1.80
2022-11-21T23:26:11.489Z,1.70
2022-11-21T23:28:38.367Z,1.70
2022-11-21T23:31:05.304Z,1.80
2022-11-21T23:33:32.082Z,1.80
2022-11-21T23:35:59.128Z,1.80
2022-11-21T23:38:26.683Z,1.80
2022-11-21T23:40:53.636Z,1.80
2022-11-21T23:43:20.540Z,1.80
2022-11-21T23:45:51.965Z,1.80
2022-11-21T23:48:19.870Z,1.80
2022-11-21T23:50:50.945Z,1.80
2022-11-21T23:53:19.163Z,1.90
2022-11-21T23:55:46.239Z,1.80
2022-11-21T23:58:13.105Z,1.80
